createdAt,value
2023-02-02T00:01:28.189Z,1.50
2023-02-02T00:04:33.350Z,1.50
2023-02-02T00:07:36.736Z,1.60
2023-02-02T00:10:39.999Z,1.50
2023-02-02T00:13:44.779Z,1.50
2023-02-02T00:16:48.999Z,1.60
2023-02-02T00:19:52.296Z,1.60
2023-02-02T00:22:55.553Z,1.60
2023-02-02T00:25:58.740Z,1.60
2023-02-02T00:29:03.621Z,1.60
2023-02-02T00:32:07.326Z,1.60
2023-02-02T00:35:11.121Z,1.60
2023-02-02T00:38:14.305Z,1.70
2023-02-02T00:41:18.130Z,1.70
2023-02-02T00:44:40.353Z,1.80
2023-02-02T00:47:44.700Z,1.70
2023-02-02T00:50:48.522Z,1.80
2023-02-02T00:53:51.656Z,1.80
2023-02-02T00:56:55.042Z,1.80
2023-02-02T00:59:59.604Z,1.80
2023-02-02T01:03:04.393Z,1.80
2023-02-02T01:06:07.970Z,1.70
2023-02-02T01:09:11.161Z,1.80
2023-02-02T01:12:14.349Z,1.70
2023-02-02T01:15:19.290Z,1.70
2023-02-02T01:18:22.505Z,1.70
2023-02-02T01:21:27.140Z,1.70
2023-02-02T01:24:30.491Z,1.70
2023-02-02T01:27:33.861Z,1.70
2023-02-02T01:30:38.654Z,1.70
2023-02-02T01:33:43.641Z,1.70
2023-02-02T01:36:46.878Z,1.80
2023-02-02T01:39:50.527Z,1.70
2023-02-02T01:42:53.798Z,1.70
2023-02-02T01:45:59.971Z,1.70
2023-02-02T01:49:07.598Z,1.70
2023-02-02T01:52:13.783Z,1.80
2023-02-02T01:55:20.745Z,1.80
2023-02-02T01:58:29.253Z,1.80
2023-02-02T02:01:33.975Z,1.80
2023-02-02T02:04:37.297Z,1.80
2023-02-02T02:07:44.699Z,1.80
2023-02-02T02:10:48.242Z,1.90
2023-02-02T02:14:10.420Z,1.90
2023-02-02T02:17:32.408Z,1.90
2023-02-02T02:21:17.005Z,1.90
2023-02-02T02:25:05.910Z,1.90
2023-02-02T02:28:37.716Z,1.90
2023-02-02T02:32:19.206Z,2.00
2023-02-02T02:35:32.254Z,2.00
2023-02-02T02:38:39.862Z,2.00
2023-02-02T02:41:47.623Z,2.00
2023-02-02T02:44:52.277Z,2.00
2023-02-02T02:47:57.783Z,2.00
2023-02-02T02:51:10.413Z,2.00
2023-02-02T02:54:16.478Z,2.10
2023-02-02T02:57:35.641Z,2.10
2023-02-02T03:04:10.980Z,2.00
2023-02-02T03:07:21.516Z,2.00
2023-02-02T03:10:27.923Z,2.00
2023-02-02T03:13:32.575Z,2.00
2023-02-02T03:16:35.801Z,2.00
2023-02-02T03:19:40.340Z,2.00
2023-02-02T03:22:43.629Z,2.00
2023-02-02T03:25:47.216Z,1.90
2023-02-02T03:28:51.672Z,1.90
2023-02-02T03:31:55.118Z,1.90
2023-02-02T03:34:59.728Z,1.90
2023-02-02T03:38:03.755Z,1.90
2023-02-02T03:41:07.948Z,1.90
2023-02-02T03:44:11.112Z,2.00
2023-02-02T03:47:14.272Z,1.90
2023-02-02T03:50:19.320Z,2.00
2023-02-02T03:53:22.513Z,2.00
2023-02-02T03:56:25.819Z,2.00
2023-02-02T03:59:28.986Z,1.90
2023-02-02T04:02:32.248Z,1.90
2023-02-02T04:05:36.812Z,1.90
2023-02-02T04:08:40.353Z,2.00
2023-02-02T04:11:43.517Z,1.90
2023-02-02T04:14:46.833Z,1.90
2023-02-02T04:17:50.011Z,1.80
2023-02-02T04:20:59.644Z,1.80
2023-02-02T04:24:02.785Z,1.70
2023-02-02T04:27:06.098Z,1.80
2023-02-02T04:30:10.738Z,1.80
2023-02-02T04:33:14.196Z,1.70
2023-02-02T04:36:18.730Z,1.70
2023-02-02T04:39:21.858Z,1.50
2023-02-02T04:42:25.262Z,1.70
2023-02-02T04:45:28.975Z,1.60
2023-02-02T04:48:32.527Z,1.50
2023-02-02T04:51:38.180Z,1.50
2023-02-02T04:54:41.811Z,1.40
2023-02-02T04:57:45.192Z,1.20
2023-02-02T05:00:48.406Z,1.30
2023-02-02T05:03:51.922Z,1.20
2023-02-02T05:06:56.487Z,1.30
2023-02-02T05:09:59.672Z,1.40
2023-02-02T05:13:02.903Z,1.40
2023-02-02T05:16:06.992Z,1.50
2023-02-02T05:19:12.824Z,1.60
2023-02-02T05:22:17.331Z,1.70
2023-02-02T05:25:20.460Z,1.70
2023-02-02T05:28:24.069Z,1.70
2023-02-02T05:31:27.451Z,1.80
2023-02-02T05:34:30.792Z,1.80
2023-02-02T05:37:35.275Z,1.80
2023-02-02T05:40:38.419Z,1.90
2023-02-02T05:43:41.812Z,1.90
2023-02-02T05:46:45.628Z,1.90
2023-02-02T05:49:57.387Z,1.80
2023-02-02T05:53:02.115Z,1.80
2023-02-02T05:56:05.743Z,1.90
2023-02-02T05:59:09.065Z,1.90
2023-02-02T06:02:12.439Z,1.90
2023-02-02T06:05:15.912Z,1.80
2023-02-02T06:08:20.679Z,1.90
2023-02-02T06:11:24.289Z,1.90
2023-02-02T06:14:27.787Z,1.90
2023-02-02T06:17:30.974Z,1.90
2023-02-02T06:20:34.465Z,1.90
2023-02-02T06:23:43.374Z,1.90
2023-02-02T06:26:46.795Z,2.00
2023-02-02T06:29:50.184Z,1.90
2023-02-02T06:32:53.748Z,2.00
2023-02-02T06:36:02.222Z,2.00
2023-02-02T06:39:09.721Z,2.00
2023-02-02T06:42:21.379Z,2.00
2023-02-02T06:45:25.579Z,2.10
2023-02-02T06:48:29.219Z,2.10
2023-02-02T06:51:32.425Z,2.10
2023-02-02T06:54:37.063Z,2.20
2023-02-02T06:57:40.179Z,2.20
2023-02-02T07:00:43.393Z,2.10
2023-02-02T07:03:50.085Z,2.10
2023-02-02T07:06:53.340Z,2.10
2023-02-02T07:09:58.575Z,2.20
2023-02-02T07:13:01.733Z,2.20
2023-02-02T07:16:05.778Z,2.20
2023-02-02T07:19:09.200Z,2.20
2023-02-02T07:22:12.701Z,2.30
2023-02-02T07:25:17.486Z,2.30
2023-02-02T07:28:20.724Z,2.30
2023-02-02T07:31:25.608Z,2.40
2023-02-02T07:34:29.226Z,2.50
2023-02-02T07:37:32.613Z,2.40
2023-02-02T07:40:37.344Z,2.50
2023-02-02T07:43:40.601Z,2.60
2023-02-02T07:46:44.089Z,2.60
2023-02-02T07:49:47.265Z,2.70
2023-02-02T07:52:50.607Z,2.70
2023-02-02T07:55:55.312Z,2.70
2023-02-02T07:58:59.074Z,2.70
2023-02-02T08:02:02.761Z,2.80
2023-02-02T08:05:07.637Z,2.80
2023-02-02T08:08:10.848Z,2.80
2023-02-02T08:11:16.729Z,2.70
2023-02-02T08:14:19.933Z,2.60
2023-02-02T08:17:23.784Z,2.80
2023-02-02T08:20:27.024Z,2.80
2023-02-02T08:23:31.338Z,3.00
2023-02-02T08:26:35.931Z,3.10
2023-02-02T08:29:40.312Z,3.10
2023-02-02T08:32:43.518Z,3.10
2023-02-02T08:35:47.212Z,3.10
2023-02-02T08:38:50.893Z,3.10
2023-02-02T08:41:57.849Z,3.20
2023-02-02T08:46:02.361Z,3.20
2023-02-02T08:48:24.372Z,3.30
2023-02-02T08:51:27.647Z,3.20
2023-02-02T08:54:30.991Z,3.20
2023-02-02T08:57:35.758Z,3.20
2023-02-02T09:00:39.165Z,3.10
2023-02-02T09:03:42.768Z,3.00
2023-02-02T09:06:46.918Z,2.90
2023-02-02T09:09:50.977Z,2.70
2023-02-02T09:12:55.965Z,2.60
2023-02-02T09:16:01.784Z,2.40
2023-02-02T09:19:05.895Z,2.30
2023-02-02T09:22:09.328Z,2.20
2023-02-02T09:25:12.585Z,2.20
2023-02-02T09:28:17.217Z,2.20
2023-02-02T09:31:20.734Z,2.30
2023-02-02T09:34:24.033Z,2.30
2023-02-02T09:37:27.237Z,2.40
2023-02-02T09:40:35.290Z,2.50
2023-02-02T09:43:48.965Z,2.40
2023-02-02T09:47:05.607Z,2.50
2023-02-02T09:50:18.305Z,2.40
2023-02-02T09:53:54.604Z,2.40
2023-02-02T09:57:01.331Z,2.30
2023-02-02T10:00:15.284Z,2.20
2023-02-02T10:03:22.981Z,2.10
2023-02-02T10:06:34.641Z,2.20
2023-02-02T10:09:47.393Z,2.30
2023-02-02T10:12:55.550Z,2.40
2023-02-02T10:16:07.597Z,2.50
2023-02-02T10:19:14.738Z,2.50
2023-02-02T10:22:22.691Z,2.60
2023-02-02T10:25:28.945Z,2.60
2023-02-02T10:28:43.565Z,2.60
2023-02-02T10:31:58.550Z,2.70
2023-02-02T10:35:22.644Z,2.80
2023-02-02T10:38:36.702Z,2.80
2023-02-02T10:41:49.672Z,2.70
2023-02-02T10:44:58.082Z,2.80
2023-02-02T10:48:03.128Z,2.80
2023-02-02T10:51:19.057Z,2.80
2023-02-02T10:54:54.951Z,2.70
2023-02-02T10:58:06.123Z,2.60
2023-02-02T11:01:11.630Z,2.60
2023-02-02T11:04:34.068Z,2.60
2023-02-02T11:07:38.289Z,2.70
2023-02-02T11:10:41.497Z,2.80
2023-02-02T11:13:49.214Z,2.80
2023-02-02T11:17:03.139Z,2.80
2023-02-02T11:20:24.729Z,3.00
2023-02-02T11:23:29.813Z,2.90
2023-02-02T11:26:46.013Z,2.90
2023-02-02T11:29:50.867Z,2.80
2023-02-02T11:32:55.693Z,2.80
2023-02-02T11:36:02.400Z,2.80
2023-02-02T11:39:21.959Z,2.80
2023-02-02T11:42:27.333Z,2.90
2023-02-02T11:45:35.524Z,2.90
2023-02-02T11:48:40.708Z,2.90
2023-02-02T11:51:56.605Z,3.00
2023-02-02T11:55:02.934Z,3.00
2023-02-02T11:58:27.593Z,3.00
2023-02-02T12:01:32.799Z,3.10
2023-02-02T12:04:36.027Z,3.00
2023-02-02T12:07:42.290Z,3.00
2023-02-02T12:10:50.933Z,3.00
2023-02-02T12:14:06.899Z,3.10
2023-02-02T12:17:20.732Z,3.00
2023-02-02T12:20:36.628Z,3.20
2023-02-02T12:23:54.675Z,3.10
2023-02-02T12:27:06.350Z,2.90
2023-02-02T12:30:25.052Z,2.80
2023-02-02T12:33:36.202Z,2.80
2023-02-02T12:36:50.774Z,2.90
2023-02-02T12:40:10.369Z,2.90
2023-02-02T12:43:31.332Z,2.90
2023-02-02T12:46:50.175Z,3.00
2023-02-02T12:50:05.815Z,2.90
2023-02-02T12:53:27.468Z,3.00
2023-02-02T12:56:42.075Z,3.00
2023-02-02T13:00:02.782Z,2.90
2023-02-02T13:03:19.276Z,2.90
2023-02-02T13:06:42.618Z,2.80
2023-02-02T13:09:53.047Z,2.80
2023-02-02T13:13:02.523Z,2.70
2023-02-02T13:16:10.537Z,2.70
2023-02-02T13:19:22.296Z,2.70
2023-02-02T13:22:29.691Z,2.60
2023-02-02T13:25:38.453Z,2.50
2023-02-02T13:28:48.795Z,2.50
2023-02-02T13:31:56.553Z,2.50
2023-02-02T13:35:04.653Z,2.50
2023-02-02T13:38:17.185Z,2.40
2023-02-02T13:41:20.528Z,2.50
2023-02-02T13:44:32.704Z,2.60
2023-02-02T13:47:41.589Z,2.60
2023-02-02T13:50:59.320Z,2.70
2023-02-02T13:54:33.068Z,2.60
2023-02-02T13:58:12.809Z,2.60
2023-02-02T14:01:20.048Z,2.70
2023-02-02T14:04:26.608Z,2.70
2023-02-02T14:07:41.761Z,2.60
2023-02-02T14:10:57.743Z,2.70
2023-02-02T14:14:39.011Z,2.60
2023-02-02T14:17:55.406Z,2.60
2023-02-02T14:20:58.818Z,2.60
2023-02-02T14:24:03.457Z,2.60
2023-02-02T14:27:45.482Z,2.50
2023-02-02T14:31:20.056Z,2.50
2023-02-02T14:34:34.949Z,2.40
2023-02-02T14:37:49.164Z,2.50
2023-02-02T14:40:59.517Z,2.50
2023-02-02T14:44:03.519Z,2.40
2023-02-02T14:47:47.890Z,2.40
2023-02-02T14:50:54.243Z,2.40
2023-02-02T14:54:01.414Z,2.40
2023-02-02T14:57:08.039Z,2.40
2023-02-02T15:00:23.032Z,2.40
2023-02-02T15:03:52.991Z,2.40
2023-02-02T15:06:59.738Z,2.40
2023-02-02T15:10:03.078Z,2.30
2023-02-02T15:13:08.784Z,2.30
2023-02-02T15:16:21.228Z,2.30
2023-02-02T15:19:32.328Z,2.30
2023-02-02T15:22:42.906Z,2.20
2023-02-02T15:25:50.761Z,2.10
2023-02-02T15:28:59.572Z,2.10
2023-02-02T15:32:04.416Z,2.10
2023-02-02T15:35:14.101Z,2.10
2023-02-02T15:38:21.161Z,2.10
2023-02-02T15:41:28.676Z,2.00
2023-02-02T15:44:32.075Z,1.90
2023-02-02T15:47:38.721Z,1.90
2023-02-02T15:50:46.756Z,1.90
2023-02-02T15:53:52.926Z,1.90
2023-02-02T15:56:57.381Z,1.90
2023-02-02T16:00:03.556Z,1.90
2023-02-02T16:03:20.714Z,1.90
2023-02-02T16:06:24.520Z,1.90
2023-02-02T16:09:36.983Z,1.80
2023-02-02T16:12:44.619Z,1.80
2023-02-02T16:15:57.462Z,1.70
2023-02-02T16:19:06.264Z,1.60
2023-02-02T16:22:17.694Z,1.70
2023-02-02T16:25:25.843Z,1.70
2023-02-02T16:28:29.791Z,1.70
2023-02-02T16:31:33.783Z,1.70
2023-02-02T16:34:47.544Z,1.70
2023-02-02T16:37:51.232Z,1.70
2023-02-02T16:41:11.249Z,1.70
2023-02-02T16:44:38.744Z,1.70
2023-02-02T16:47:42.587Z,1.70
2023-02-02T16:50:48.912Z,1.70
2023-02-02T16:54:02.111Z,1.70
2023-02-02T16:57:07.557Z,1.70
2023-02-02T17:00:21.997Z,1.60
2023-02-02T17:03:32.217Z,1.70
2023-02-02T17:06:50.408Z,1.70
2023-02-02T17:10:12.834Z,1.70
2023-02-02T17:13:38.021Z,1.80
2023-02-02T17:16:41.550Z,1.70
2023-02-02T17:19:45.022Z,1.70
2023-02-02T17:22:54.856Z,1.70
2023-02-02T17:25:58.354Z,1.70
2023-02-02T17:29:05.446Z,1.80
2023-02-02T17:32:09.919Z,1.80
2023-02-02T17:35:17.163Z,1.90
2023-02-02T17:38:21.586Z,1.90
2023-02-02T17:41:25.599Z,1.90
2023-02-02T17:44:31.415Z,1.90
2023-02-02T17:47:37.584Z,1.90
2023-02-02T17:50:43.281Z,1.90
2023-02-02T17:53:46.649Z,1.90
2023-02-02T17:56:50.089Z,1.90
2023-02-02T17:59:54.767Z,1.90
2023-02-02T18:03:01.667Z,1.90
2023-02-02T18:06:06.007Z,1.90
2023-02-02T18:09:10.935Z,1.80
2023-02-02T18:12:14.307Z,1.90
2023-02-02T18:15:19.423Z,1.80
2023-02-02T18:18:23.376Z,1.80
2023-02-02T18:21:27.435Z,1.80
2023-02-02T18:24:30.952Z,1.90
2023-02-02T18:27:34.823Z,1.80
2023-02-02T18:30:41.187Z,1.80
2023-02-02T18:33:44.915Z,1.70
2023-02-02T18:36:48.439Z,1.70
2023-02-02T18:39:52.103Z,1.80
2023-02-02T18:42:55.546Z,1.80
2023-02-02T18:46:02.033Z,1.80
2023-02-02T18:49:05.498Z,1.80
2023-02-02T18:52:09.543Z,1.70
2023-02-02T18:55:14.137Z,1.80
2023-02-02T18:58:17.915Z,1.70
2023-02-02T19:01:26.121Z,1.70
2023-02-02T19:04:30.867Z,1.70
2023-02-02T19:07:51.870Z,1.60
2023-02-02T19:11:02.230Z,1.60
2023-02-02T19:14:07.451Z,1.60
2023-02-02T19:17:21.849Z,1.50
2023-02-02T19:20:28.765Z,1.50
2023-02-02T19:23:35.219Z,1.50
2023-02-02T19:26:42.143Z,1.50
2023-02-02T19:29:48.672Z,1.50
2023-02-02T19:32:53.608Z,1.40
2023-02-02T19:35:56.900Z,1.40
2023-02-02T19:39:06.328Z,1.40
2023-02-02T19:42:12.565Z,1.40
2023-02-02T19:45:22.669Z,1.40
2023-02-02T19:48:29.271Z,1.40
2023-02-02T19:51:44.590Z,1.30
2023-02-02T19:54:49.620Z,1.30
2023-02-02T19:57:54.846Z,1.20
2023-02-02T20:01:00.256Z,1.20
2023-02-02T20:04:05.241Z,1.20
2023-02-02T20:07:15.012Z,1.20
2023-02-02T20:10:24.551Z,1.20
2023-02-02T20:13:39.523Z,1.30
2023-02-02T20:16:51.064Z,1.20
2023-02-02T20:19:56.301Z,1.30
2023-02-02T20:22:59.935Z,1.30
2023-02-02T20:26:05.700Z,1.30
2023-02-02T20:29:18.295Z,1.30
2023-02-02T20:32:26.518Z,1.30
2023-02-02T20:35:39.437Z,1.30
2023-02-02T20:38:42.900Z,1.30
2023-02-02T20:41:48.229Z,1.30
2023-02-02T20:44:52.895Z,1.40
2023-02-02T20:47:56.471Z,1.30
2023-02-02T20:51:01.594Z,1.30
2023-02-02T20:54:05.327Z,1.30
2023-02-02T20:57:08.924Z,1.30
2023-02-02T21:00:16.048Z,1.30
2023-02-02T21:03:20.428Z,1.20
2023-02-02T21:06:26.766Z,1.20
2023-02-02T21:09:31.792Z,1.30
2023-02-02T21:12:36.625Z,1.20
2023-02-02T21:15:40.484Z,1.20
2023-02-02T21:18:47.391Z,1.30
2023-02-02T21:21:52.357Z,1.30
2023-02-02T21:24:56.082Z,1.20
2023-02-02T21:28:00.429Z,1.30
2023-02-02T21:31:03.981Z,1.20
2023-02-02T21:34:08.884Z,1.20
2023-02-02T21:37:16.341Z,1.20
2023-02-02T21:40:28.728Z,1.20
2023-02-02T21:43:34.115Z,1.20
2023-02-02T21:46:39.557Z,1.20
2023-02-02T21:49:43.487Z,1.30
2023-02-02T21:52:48.567Z,1.30
2023-02-02T21:55:54.992Z,1.30
2023-02-02T21:58:59.987Z,1.20
2023-02-02T22:02:26.495Z,1.20
2023-02-02T22:05:35.846Z,1.20
2023-02-02T22:08:40.873Z,1.20
2023-02-02T22:11:48.687Z,1.10
2023-02-02T22:14:54.371Z,1.10
2023-02-02T22:17:57.602Z,1.10
2023-02-02T22:21:00.906Z,1.10
2023-02-02T22:24:10.701Z,1.20
2023-02-02T22:27:20.174Z,1.00
2023-02-02T22:30:28.872Z,1.00
2023-02-02T22:33:32.409Z,1.00
2023-02-02T22:36:35.669Z,1.00
2023-02-02T22:39:42.770Z,0.90
2023-02-02T22:42:46.071Z,0.80
2023-02-02T22:45:49.533Z,0.70
2023-02-02T22:48:52.859Z,0.60
2023-02-02T22:51:56.255Z,0.60
2023-02-02T22:55:01.240Z,0.50
2023-02-02T22:58:04.437Z,0.50
2023-02-02T23:01:07.661Z,0.40
2023-02-02T23:04:11.065Z,0.40
2023-02-02T23:07:14.436Z,0.40
2023-02-02T23:10:21.084Z,0.40
2023-02-02T23:13:24.369Z,0.40
2023-02-02T23:16:27.845Z,0.30
2023-02-02T23:19:31.117Z,0.30
2023-02-02T23:22:34.663Z,0.30
2023-02-02T23:25:39.980Z,0.20
2023-02-02T23:28:43.746Z,0.10
2023-02-02T23:31:47.070Z,0.10
2023-02-02T23:34:50.369Z,0.10
2023-02-02T23:37:53.703Z,0.10
2023-02-02T23:41:00.348Z,0.10
2023-02-02T23:44:03.589Z,-0.10
2023-02-02T23:47:06.968Z,0.00
2023-02-02T23:50:11.484Z,-0.20
2023-02-02T23:53:16.030Z,-0.20
2023-02-02T23:56:21.278Z,-0.20
2023-02-02T23:59:24.588Z,-0.20
